sensor_id;sensor_type;location;lat;lon;timestamp;P1;durP1;ratioP1;P2;durP2;ratioP2
35376;SDS011;21480;51.642;4.834;2022-09-21T00:01:14;125.17;;;114.83;;
35376;SDS011;21480;51.642;4.834;2022-09-21T00:03:42;127.10;;;116.33;;
35376;SDS011;21480;51.642;4.834;2022-09-21T00:06:09;124.60;;;114.30;;
35376;SDS011;21480;51.642;4.834;2022-09-21T00:08:41;125.33;;;114.77;;
35376;SDS011;21480;51.642;4.834;2022-09-21T00:11:10;123.40;;;113.23;;
35376;SDS011;21480;51.642;4.834;2022-09-21T00:13:38;122.50;;;112.80;;
35376;SDS011;21480;51.642;4.834;2022-09-21T00:16:05;123.33;;;112.80;;
35376;SDS011;21480;51.642;4.834;2022-09-21T00:18:31;122.70;;;112.90;;
35376;SDS011;21480;51.642;4.834;2022-09-21T00:20:57;123.67;;;113.33;;
35376;SDS011;21480;51.642;4.834;2022-09-21T00:23:23;122.00;;;111.90;;
35376;SDS011;21480;51.642;4.834;2022-09-21T00:25:50;122.70;;;113.00;;
35376;SDS011;21480;51.642;4.834;2022-09-21T00:28:15;122.43;;;112.43;;
35376;SDS011;21480;51.642;4.834;2022-09-21T00:30:41;124.37;;;114.27;;
35376;SDS011;21480;51.642;4.834;2022-09-21T00:33:07;122.77;;;112.70;;
35376;SDS011;21480;51.642;4.834;2022-09-21T00:35:33;122.47;;;112.77;;
35376;SDS011;21480;51.642;4.834;2022-09-21T00:37:59;123.03;;;112.97;;
35376;SDS011;21480;51.642;4.834;2022-09-21T00:40:26;122.57;;;112.47;;
35376;SDS011;21480;51.642;4.834;2022-09-21T00:42:52;123.50;;;113.80;;
35376;SDS011;21480;51.642;4.834;2022-09-21T00:45:17;123.27;;;113.07;;
35376;SDS011;21480;51.642;4.834;2022-09-21T00:47:49;123.23;;;113.30;;
35376;SDS011;21480;51.642;4.834;2022-09-21T00:50:18;121.00;;;111.40;;
35376;SDS011;21480;51.642;4.834;2022-09-21T00:52:52;125.20;;;115.10;;
35376;SDS011;21480;51.642;4.834;2022-09-21T00:55:28;124.60;;;114.10;;
35376;SDS011;21480;51.642;4.834;2022-09-21T00:58:02;122.47;;;112.87;;
35376;SDS011;21480;51.642;4.834;2022-09-21T01:00:32;121.93;;;112.40;;
35376;SDS011;21480;51.642;4.834;2022-09-21T01:02:58;122.07;;;112.20;;
35376;SDS011;21480;51.642;4.834;2022-09-21T01:05:25;123.37;;;113.43;;
35376;SDS011;21480;51.642;4.834;2022-09-21T01:07:51;123.80;;;113.57;;
35376;SDS011;21480;51.642;4.834;2022-09-21T01:10:18;124.30;;;114.47;;
35376;SDS011;21480;51.642;4.834;2022-09-21T01:13:01;123.40;;;113.27;;
35376;SDS011;21480;51.642;4.834;2022-09-21T01:34:35;123.70;;;113.90;;
35376;SDS011;21480;51.642;4.834;2022-09-21T01:37:15;123.33;;;113.03;;
35376;SDS011;21480;51.642;4.834;2022-09-21T01:39:46;122.63;;;112.70;;
35376;SDS011;21480;51.642;4.834;2022-09-21T01:42:15;122.30;;;112.70;;
35376;SDS011;21480;51.642;4.834;2022-09-21T01:44:43;122.63;;;112.70;;
35376;SDS011;21480;51.642;4.834;2022-09-21T01:47:14;124.13;;;113.67;;
35376;SDS011;21480;51.642;4.834;2022-09-21T01:49:43;122.37;;;112.73;;
35376;SDS011;21480;51.642;4.834;2022-09-21T01:52:23;121.10;;;111.43;;
35376;SDS011;21480;51.642;4.834;2022-09-21T01:55:02;124.70;;;114.67;;
35376;SDS011;21480;51.642;4.834;2022-09-21T02:00:50;123.30;;;113.07;;
35376;SDS011;21480;51.642;4.834;2022-09-21T02:06:00;125.07;;;114.87;;
35376;SDS011;21480;51.642;4.834;2022-09-21T02:08:28;123.87;;;114.23;;
35376;SDS011;21480;51.642;4.834;2022-09-21T02:10:56;124.77;;;114.57;;
35376;SDS011;21480;51.642;4.834;2022-09-21T02:13:24;123.93;;;113.93;;
35376;SDS011;21480;51.642;4.834;2022-09-21T02:21:45;123.90;;;113.87;;
35376;SDS011;21480;51.642;4.834;2022-09-21T02:26:58;123.53;;;113.20;;
35376;SDS011;21480;51.642;4.834;2022-09-21T02:29:42;123.33;;;113.53;;
35376;SDS011;21480;51.642;4.834;2022-09-21T02:38:07;123.47;;;113.50;;
35376;SDS011;21480;51.642;4.834;2022-09-21T02:40:39;126.30;;;115.47;;
35376;SDS011;21480;51.642;4.834;2022-09-21T02:43:18;125.17;;;115.03;;
35376;SDS011;21480;51.642;4.834;2022-09-21T02:45:59;124.83;;;114.57;;
35376;SDS011;21480;51.642;4.834;2022-09-21T02:48:48;122.97;;;113.27;;
35376;SDS011;21480;51.642;4.834;2022-09-21T02:51:26;122.53;;;112.73;;
35376;SDS011;21480;51.642;4.834;2022-09-21T02:54:01;123.77;;;113.90;;
35376;SDS011;21480;51.642;4.834;2022-09-21T02:56:29;123.73;;;113.53;;
35376;SDS011;21480;51.642;4.834;2022-09-21T02:58:56;124.43;;;114.43;;
35376;SDS011;21480;51.642;4.834;2022-09-21T03:01:26;123.10;;;112.90;;
35376;SDS011;21480;51.642;4.834;2022-09-21T03:03:53;122.60;;;112.83;;
35376;SDS011;21480;51.642;4.834;2022-09-21T03:06:19;122.57;;;112.53;;
35376;SDS011;21480;51.642;4.834;2022-09-21T03:08:45;121.10;;;111.60;;
35376;SDS011;21480;51.642;4.834;2022-09-21T03:11:15;124.73;;;114.27;;
35376;SDS011;21480;51.642;4.834;2022-09-21T03:13:41;125.40;;;115.30;;
35376;SDS011;21480;51.642;4.834;2022-09-21T03:16:06;125.60;;;115.50;;
35376;SDS011;21480;51.642;4.834;2022-09-21T03:18:32;125.43;;;114.37;;
35376;SDS011;21480;51.642;4.834;2022-09-21T03:20:59;126.73;;;116.30;;
35376;SDS011;21480;51.642;4.834;2022-09-21T03:23:25;123.77;;;113.87;;
35376;SDS011;21480;51.642;4.834;2022-09-21T03:25:50;125.03;;;114.97;;
35376;SDS011;21480;51.642;4.834;2022-09-21T03:28:16;124.10;;;113.53;;
35376;SDS011;21480;51.642;4.834;2022-09-21T03:30:42;124.67;;;114.03;;
35376;SDS011;21480;51.642;4.834;2022-09-21T03:33:08;126.50;;;116.03;;
35376;SDS011;21480;51.642;4.834;2022-09-21T03:35:35;126.43;;;115.50;;
35376;SDS011;21480;51.642;4.834;2022-09-21T03:38:01;127.00;;;116.70;;
35376;SDS011;21480;51.642;4.834;2022-09-21T03:40:27;124.03;;;113.57;;
35376;SDS011;21480;51.642;4.834;2022-09-21T03:42:53;124.30;;;113.80;;
35376;SDS011;21480;51.642;4.834;2022-09-21T03:45:19;126.17;;;115.67;;
35376;SDS011;21480;51.642;4.834;2022-09-21T03:47:46;125.17;;;114.67;;
35376;SDS011;21480;51.642;4.834;2022-09-21T03:50:12;124.80;;;114.90;;
35376;SDS011;21480;51.642;4.834;2022-09-21T03:52:39;125.53;;;115.13;;
35376;SDS011;21480;51.642;4.834;2022-09-21T03:55:06;127.20;;;116.73;;
35376;SDS011;21480;51.642;4.834;2022-09-21T03:57:33;124.53;;;113.87;;
35376;SDS011;21480;51.642;4.834;2022-09-21T03:59:59;123.40;;;113.23;;
35376;SDS011;21480;51.642;4.834;2022-09-21T04:02:27;126.27;;;115.03;;
35376;SDS011;21480;51.642;4.834;2022-09-21T04:04:54;124.60;;;114.27;;
35376;SDS011;21480;51.642;4.834;2022-09-21T04:07:20;124.40;;;114.27;;
35376;SDS011;21480;51.642;4.834;2022-09-21T04:09:45;122.90;;;112.80;;
35376;SDS011;21480;51.642;4.834;2022-09-21T04:12:11;125.67;;;115.00;;
35376;SDS011;21480;51.642;4.834;2022-09-21T04:14:37;124.00;;;114.00;;
35376;SDS011;21480;51.642;4.834;2022-09-21T04:17:03;125.97;;;115.30;;
35376;SDS011;21480;51.642;4.834;2022-09-21T04:19:29;125.00;;;114.70;;
35376;SDS011;21480;51.642;4.834;2022-09-21T04:21:55;124.50;;;114.13;;
35376;SDS011;21480;51.642;4.834;2022-09-21T04:24:21;127.43;;;115.97;;
35376;SDS011;21480;51.642;4.834;2022-09-21T04:26:47;122.83;;;112.97;;
35376;SDS011;21480;51.642;4.834;2022-09-21T04:29:13;125.70;;;115.50;;
35376;SDS011;21480;51.642;4.834;2022-09-21T04:31:40;123.77;;;113.77;;
35376;SDS011;21480;51.642;4.834;2022-09-21T04:34:07;126.23;;;115.40;;
35376;SDS011;21480;51.642;4.834;2022-09-21T04:36:36;125.13;;;114.73;;
35376;SDS011;21480;51.642;4.834;2022-09-21T04:39:01;123.77;;;113.53;;
35376;SDS011;21480;51.642;4.834;2022-09-21T04:41:30;124.70;;;114.33;;
35376;SDS011;21480;51.642;4.834;2022-09-21T04:43:56;124.17;;;113.73;;
35376;SDS011;21480;51.642;4.834;2022-09-21T04:46:22;127.53;;;117.23;;
35376;SDS011;21480;51.642;4.834;2022-09-21T04:48:47;126.27;;;115.47;;
35376;SDS011;21480;51.642;4.834;2022-09-21T04:51:14;126.27;;;115.83;;
35376;SDS011;21480;51.642;4.834;2022-09-21T04:53:41;124.57;;;114.30;;
35376;SDS011;21480;51.642;4.834;2022-09-21T04:56:08;128.23;;;116.80;;
35376;SDS011;21480;51.642;4.834;2022-09-21T04:58:37;126.73;;;116.23;;
35376;SDS011;21480;51.642;4.834;2022-09-21T05:01:03;124.07;;;113.93;;
35376;SDS011;21480;51.642;4.834;2022-09-21T05:03:30;126.57;;;115.97;;
35376;SDS011;21480;51.642;4.834;2022-09-21T05:05:56;125.83;;;115.03;;
35376;SDS011;21480;51.642;4.834;2022-09-21T05:08:22;125.33;;;115.20;;
35376;SDS011;21480;51.642;4.834;2022-09-21T05:11:08;124.50;;;114.13;;
35376;SDS011;21480;51.642;4.834;2022-09-21T05:13:40;123.63;;;113.53;;
35376;SDS011;21480;51.642;4.834;2022-09-21T05:16:09;125.17;;;114.73;;
35376;SDS011;21480;51.642;4.834;2022-09-21T05:18:35;124.33;;;113.60;;
35376;SDS011;21480;51.642;4.834;2022-09-21T05:21:01;123.50;;;113.03;;
35376;SDS011;21480;51.642;4.834;2022-09-21T05:23:28;125.23;;;114.13;;
35376;SDS011;21480;51.642;4.834;2022-09-21T05:25:55;126.23;;;115.73;;
35376;SDS011;21480;51.642;4.834;2022-09-21T05:28:22;125.87;;;115.07;;
35376;SDS011;21480;51.642;4.834;2022-09-21T05:30:53;125.00;;;114.73;;
35376;SDS011;21480;51.642;4.834;2022-09-21T05:33:25;125.53;;;114.93;;
35376;SDS011;21480;51.642;4.834;2022-09-21T05:38:28;124.70;;;114.60;;
35376;SDS011;21480;51.642;4.834;2022-09-21T05:40:54;125.73;;;114.47;;
35376;SDS011;21480;51.642;4.834;2022-09-21T05:43:23;125.80;;;115.33;;
35376;SDS011;21480;51.642;4.834;2022-09-21T05:45:57;126.70;;;115.67;;
35376;SDS011;21480;51.642;4.834;2022-09-21T05:48:35;124.43;;;114.13;;
35376;SDS011;21480;51.642;4.834;2022-09-21T05:59:30;127.10;;;116.43;;
35376;SDS011;21480;51.642;4.834;2022-09-21T06:04:42;127.37;;;115.90;;
35376;SDS011;21480;51.642;4.834;2022-09-21T06:07:08;124.37;;;114.27;;
35376;SDS011;21480;51.642;4.834;2022-09-21T06:09:34;124.20;;;113.87;;
35376;SDS011;21480;51.642;4.834;2022-09-21T06:12:00;124.93;;;114.17;;
35376;SDS011;21480;51.642;4.834;2022-09-21T06:14:26;127.03;;;116.33;;
35376;SDS011;21480;51.642;4.834;2022-09-21T06:16:52;124.60;;;114.30;;
35376;SDS011;21480;51.642;4.834;2022-09-21T06:19:17;126.00;;;115.53;;
35376;SDS011;21480;51.642;4.834;2022-09-21T06:21:43;125.47;;;115.10;;
35376;SDS011;21480;51.642;4.834;2022-09-21T06:24:09;125.47;;;114.83;;
35376;SDS011;21480;51.642;4.834;2022-09-21T06:26:35;124.30;;;114.10;;
35376;SDS011;21480;51.642;4.834;2022-09-21T06:29:02;122.87;;;112.80;;
35376;SDS011;21480;51.642;4.834;2022-09-21T06:31:28;125.03;;;114.93;;
35376;SDS011;21480;51.642;4.834;2022-09-21T06:33:54;125.87;;;115.53;;
35376;SDS011;21480;51.642;4.834;2022-09-21T06:36:20;127.10;;;116.47;;
35376;SDS011;21480;51.642;4.834;2022-09-21T06:38:45;125.23;;;114.90;;
35376;SDS011;21480;51.642;4.834;2022-09-21T06:41:11;124.90;;;114.10;;
35376;SDS011;21480;51.642;4.834;2022-09-21T06:43:37;124.90;;;114.60;;
35376;SDS011;21480;51.642;4.834;2022-09-21T06:46:03;124.33;;;113.83;;
35376;SDS011;21480;51.642;4.834;2022-09-21T06:48:30;127.53;;;116.97;;
35376;SDS011;21480;51.642;4.834;2022-09-21T06:50:58;128.20;;;117.13;;
35376;SDS011;21480;51.642;4.834;2022-09-21T06:53:25;129.13;;;118.03;;
35376;SDS011;21480;51.642;4.834;2022-09-21T06:55:53;127.00;;;116.23;;
35376;SDS011;21480;51.642;4.834;2022-09-21T06:58:23;127.53;;;116.83;;
35376;SDS011;21480;51.642;4.834;2022-09-21T07:00:49;125.93;;;115.40;;
35376;SDS011;21480;51.642;4.834;2022-09-21T07:03:15;126.77;;;115.77;;
35376;SDS011;21480;51.642;4.834;2022-09-21T07:05:44;127.40;;;116.40;;
35376;SDS011;21480;51.642;4.834;2022-09-21T07:08:10;126.00;;;115.50;;
35376;SDS011;21480;51.642;4.834;2022-09-21T07:10:36;126.90;;;116.47;;
35376;SDS011;21480;51.642;4.834;2022-09-21T07:13:02;127.17;;;116.57;;
35376;SDS011;21480;51.642;4.834;2022-09-21T07:15:29;129.10;;;117.63;;
35376;SDS011;21480;51.642;4.834;2022-09-21T07:17:56;128.43;;;116.97;;
35376;SDS011;21480;51.642;4.834;2022-09-21T07:20:22;128.43;;;117.63;;
35376;SDS011;21480;51.642;4.834;2022-09-21T07:22:48;128.77;;;117.80;;
35376;SDS011;21480;51.642;4.834;2022-09-21T07:25:14;126.97;;;116.40;;
35376;SDS011;21480;51.642;4.834;2022-09-21T07:27:40;125.90;;;114.87;;
35376;SDS011;21480;51.642;4.834;2022-09-21T07:30:06;128.47;;;117.63;;
35376;SDS011;21480;51.642;4.834;2022-09-21T07:32:32;127.67;;;117.10;;
35376;SDS011;21480;51.642;4.834;2022-09-21T07:34:58;127.53;;;116.83;;
35376;SDS011;21480;51.642;4.834;2022-09-21T07:37:25;127.10;;;116.63;;
35376;SDS011;21480;51.642;4.834;2022-09-21T07:39:51;124.97;;;115.20;;
35376;SDS011;21480;51.642;4.834;2022-09-21T07:42:18;126.07;;;114.60;;
35376;SDS011;21480;51.642;4.834;2022-09-21T07:44:48;126.67;;;116.03;;
35376;SDS011;21480;51.642;4.834;2022-09-21T07:47:14;125.53;;;115.33;;
35376;SDS011;21480;51.642;4.834;2022-09-21T07:49:41;126.63;;;116.10;;
35376;SDS011;21480;51.642;4.834;2022-09-21T07:52:06;126.00;;;115.60;;
35376;SDS011;21480;51.642;4.834;2022-09-21T07:54:34;124.83;;;114.40;;
35376;SDS011;21480;51.642;4.834;2022-09-21T07:57:00;123.63;;;113.73;;
35376;SDS011;21480;51.642;4.834;2022-09-21T07:59:46;124.37;;;114.23;;
35376;SDS011;21480;51.642;4.834;2022-09-21T08:02:11;123.93;;;113.80;;
35376;SDS011;21480;51.642;4.834;2022-09-21T08:04:37;125.27;;;115.07;;
35376;SDS011;21480;51.642;4.834;2022-09-21T08:07:03;123.40;;;113.30;;
35376;SDS011;21480;51.642;4.834;2022-09-21T08:09:29;124.63;;;115.03;;
35376;SDS011;21480;51.642;4.834;2022-09-21T08:11:54;123.37;;;113.40;;
35376;SDS011;21480;51.642;4.834;2022-09-21T08:14:21;122.77;;;113.03;;
35376;SDS011;21480;51.642;4.834;2022-09-21T08:16:48;123.70;;;113.40;;
35376;SDS011;21480;51.642;4.834;2022-09-21T08:19:14;125.47;;;115.27;;
35376;SDS011;21480;51.642;4.834;2022-09-21T08:21:41;124.07;;;114.13;;
35376;SDS011;21480;51.642;4.834;2022-09-21T08:24:07;122.77;;;112.67;;
35376;SDS011;21480;51.642;4.834;2022-09-21T08:26:34;123.87;;;113.73;;
35376;SDS011;21480;51.642;4.834;2022-09-21T08:28:59;123.43;;;113.53;;
35376;SDS011;21480;51.642;4.834;2022-09-21T08:31:25;122.97;;;113.43;;
35376;SDS011;21480;51.642;4.834;2022-09-21T08:33:52;125.27;;;115.37;;
35376;SDS011;21480;51.642;4.834;2022-09-21T08:36:19;125.73;;;115.23;;
35376;SDS011;21480;51.642;4.834;2022-09-21T08:38:45;125.13;;;115.17;;
35376;SDS011;21480;51.642;4.834;2022-09-21T08:44:14;123.53;;;113.60;;
35376;SDS011;21480;51.642;4.834;2022-09-21T08:49:57;123.87;;;114.17;;
35376;SDS011;21480;51.642;4.834;2022-09-21T08:52:25;123.67;;;113.77;;
35376;SDS011;21480;51.642;4.834;2022-09-21T08:55:02;124.77;;;115.13;;
35376;SDS011;21480;51.642;4.834;2022-09-21T08:57:33;126.53;;;116.20;;
35376;SDS011;21480;51.642;4.834;2022-09-21T08:59:59;124.27;;;114.23;;
35376;SDS011;21480;51.642;4.834;2022-09-21T09:05:36;122.90;;;113.20;;
35376;SDS011;21480;51.642;4.834;2022-09-21T09:18:47;125.27;;;115.37;;
35376;SDS011;21480;51.642;4.834;2022-09-21T09:21:18;122.37;;;112.50;;
35376;SDS011;21480;51.642;4.834;2022-09-21T09:23:52;120.40;;;111.20;;
35376;SDS011;21480;51.642;4.834;2022-09-21T09:29:15;121.90;;;112.47;;
35376;SDS011;21480;51.642;4.834;2022-09-21T09:32:03;121.43;;;112.03;;
35376;SDS011;21480;51.642;4.834;2022-09-21T09:34:34;123.97;;;114.23;;
35376;SDS011;21480;51.642;4.834;2022-09-21T09:37:10;121.47;;;111.87;;
35376;SDS011;21480;51.642;4.834;2022-09-21T09:39:37;122.40;;;113.03;;
35376;SDS011;21480;51.642;4.834;2022-09-21T09:50:34;121.47;;;111.97;;
35376;SDS011;21480;51.642;4.834;2022-09-21T09:55:56;123.63;;;113.70;;
35376;SDS011;21480;51.642;4.834;2022-09-21T10:00:52;122.57;;;112.63;;
35376;SDS011;21480;51.642;4.834;2022-09-21T10:03:21;119.23;;;110.07;;
35376;SDS011;21480;51.642;4.834;2022-09-21T10:05:48;121.40;;;112.37;;
35376;SDS011;21480;51.642;4.834;2022-09-21T10:11:18;121.30;;;111.77;;
35376;SDS011;21480;51.642;4.834;2022-09-21T10:13:45;122.47;;;113.00;;
35376;SDS011;21480;51.642;4.834;2022-09-21T10:16:22;120.37;;;111.07;;
35376;SDS011;21480;51.642;4.834;2022-09-21T10:18:49;125.77;;;115.90;;
35376;SDS011;21480;51.642;4.834;2022-09-21T10:26:35;120.97;;;111.80;;
35376;SDS011;21480;51.642;4.834;2022-09-21T10:29:15;122.00;;;112.90;;
35376;SDS011;21480;51.642;4.834;2022-09-21T10:31:58;121.13;;;112.00;;
35376;SDS011;21480;51.642;4.834;2022-09-21T10:34:29;120.20;;;111.00;;
35376;SDS011;21480;51.642;4.834;2022-09-21T10:36:58;119.87;;;110.77;;
35376;SDS011;21480;51.642;4.834;2022-09-21T10:39:26;121.87;;;112.77;;
35376;SDS011;21480;51.642;4.834;2022-09-21T10:44:51;120.90;;;111.83;;
35376;SDS011;21480;51.642;4.834;2022-09-21T10:50:04;121.17;;;111.90;;
35376;SDS011;21480;51.642;4.834;2022-09-21T10:52:55;122.17;;;112.90;;
35376;SDS011;21480;51.642;4.834;2022-09-21T10:55:24;120.53;;;111.53;;
35376;SDS011;21480;51.642;4.834;2022-09-21T10:57:52;121.93;;;112.83;;
35376;SDS011;21480;51.642;4.834;2022-09-21T11:00:26;121.03;;;111.73;;
35376;SDS011;21480;51.642;4.834;2022-09-21T11:02:53;121.53;;;112.37;;
35376;SDS011;21480;51.642;4.834;2022-09-21T11:05:41;120.57;;;111.60;;
35376;SDS011;21480;51.642;4.834;2022-09-21T11:08:12;119.43;;;110.60;;
35376;SDS011;21480;51.642;4.834;2022-09-21T11:10:45;119.37;;;110.73;;
35376;SDS011;21480;51.642;4.834;2022-09-21T11:13:27;119.03;;;110.33;;
35376;SDS011;21480;51.642;4.834;2022-09-21T11:22:10;122.27;;;113.17;;
35376;SDS011;21480;51.642;4.834;2022-09-21T11:27:27;120.00;;;111.30;;
35376;SDS011;21480;51.642;4.834;2022-09-21T11:30:19;120.60;;;111.80;;
35376;SDS011;21480;51.642;4.834;2022-09-21T11:38:03;120.57;;;111.77;;
35376;SDS011;21480;51.642;4.834;2022-09-21T11:46:23;119.93;;;111.07;;
35376;SDS011;21480;51.642;4.834;2022-09-21T11:52:19;121.40;;;112.57;;
35376;SDS011;21480;51.642;4.834;2022-09-21T11:57:33;119.07;;;110.67;;
35376;SDS011;21480;51.642;4.834;2022-09-21T12:00:25;118.97;;;110.37;;
35376;SDS011;21480;51.642;4.834;2022-09-21T12:03:16;121.57;;;112.87;;
35376;SDS011;21480;51.642;4.834;2022-09-21T12:06:06;122.47;;;113.57;;
35376;SDS011;21480;51.642;4.834;2022-09-21T12:08:54;118.73;;;110.20;;
35376;SDS011;21480;51.642;4.834;2022-09-21T12:11:32;117.43;;;109.33;;
35376;SDS011;21480;51.642;4.834;2022-09-21T12:14:20;119.73;;;111.40;;
35376;SDS011;21480;51.642;4.834;2022-09-21T12:17:05;119.53;;;111.07;;
35376;SDS011;21480;51.642;4.834;2022-09-21T12:22:21;117.93;;;109.93;;
35376;SDS011;21480;51.642;4.834;2022-09-21T12:24:58;117.60;;;109.80;;
35376;SDS011;21480;51.642;4.834;2022-09-21T12:27:38;118.47;;;110.67;;
35376;SDS011;21480;51.642;4.834;2022-09-21T12:30:10;118.40;;;110.47;;
35376;SDS011;21480;51.642;4.834;2022-09-21T12:32:43;118.80;;;110.53;;
35376;SDS011;21480;51.642;4.834;2022-09-21T12:35:16;116.22;;;108.72;;
35376;SDS011;21480;51.642;4.834;2022-09-21T12:41:17;117.22;;;109.75;;
35376;SDS011;21480;51.642;4.834;2022-09-21T12:46:34;115.45;;;107.75;;
35376;SDS011;21480;51.642;4.834;2022-09-21T12:49:08;118.38;;;110.47;;
35376;SDS011;21480;51.642;4.834;2022-09-21T12:51:40;116.50;;;108.93;;
35376;SDS011;21480;51.642;4.834;2022-09-21T13:02:46;116.82;;;108.90;;
35376;SDS011;21480;51.642;4.834;2022-09-21T13:07:55;116.57;;;109.07;;
35376;SDS011;21480;51.642;4.834;2022-09-21T13:13:16;118.77;;;110.77;;
35376;SDS011;21480;51.642;4.834;2022-09-21T13:15:56;119.00;;;111.03;;
35376;SDS011;21480;51.642;4.834;2022-09-21T13:20:58;119.37;;;111.23;;
35376;SDS011;21480;51.642;4.834;2022-09-21T13:23:27;118.23;;;110.10;;
35376;SDS011;21480;51.642;4.834;2022-09-21T13:25:59;122.17;;;113.37;;
35376;SDS011;21480;51.642;4.834;2022-09-21T13:36:33;120.57;;;112.13;;
35376;SDS011;21480;51.642;4.834;2022-09-21T13:39:18;121.33;;;112.73;;
35376;SDS011;21480;51.642;4.834;2022-09-21T13:41:44;122.37;;;113.50;;
35376;SDS011;21480;51.642;4.834;2022-09-21T13:44:18;120.90;;;112.43;;
35376;SDS011;21480;51.642;4.834;2022-09-21T13:47:04;121.33;;;112.97;;
35376;SDS011;21480;51.642;4.834;2022-09-21T13:49:53;117.93;;;110.03;;
35376;SDS011;21480;51.642;4.834;2022-09-21T13:52:23;120.40;;;111.93;;
35376;SDS011;21480;51.642;4.834;2022-09-21T13:54:59;119.60;;;111.43;;
35376;SDS011;21480;51.642;4.834;2022-09-21T13:57:35;119.40;;;111.03;;
35376;SDS011;21480;51.642;4.834;2022-09-21T14:02:52;121.67;;;113.23;;
35376;SDS011;21480;51.642;4.834;2022-09-21T14:05:31;119.17;;;110.87;;
35376;SDS011;21480;51.642;4.834;2022-09-21T14:08:01;119.03;;;110.93;;
35376;SDS011;21480;51.642;4.834;2022-09-21T14:11:01;118.50;;;110.50;;
35376;SDS011;21480;51.642;4.834;2022-09-21T14:13:36;119.17;;;111.17;;
35376;SDS011;21480;51.642;4.834;2022-09-21T14:19:02;118.43;;;110.43;;
35376;SDS011;21480;51.642;4.834;2022-09-21T14:24:38;118.60;;;110.53;;
35376;SDS011;21480;51.642;4.834;2022-09-21T14:29:52;115.47;;;107.77;;
35376;SDS011;21480;51.642;4.834;2022-09-21T14:32:24;116.27;;;108.77;;
35376;SDS011;21480;51.642;4.834;2022-09-21T14:34:54;117.57;;;109.67;;
35376;SDS011;21480;51.642;4.834;2022-09-21T14:40:27;117.85;;;110.15;;
35376;SDS011;21480;51.642;4.834;2022-09-21T14:42:55;117.18;;;109.65;;
35376;SDS011;21480;51.642;4.834;2022-09-21T14:50:51;119.50;;;110.97;;
35376;SDS011;21480;51.642;4.834;2022-09-21T14:53:52;118.23;;;110.10;;
35376;SDS011;21480;51.642;4.834;2022-09-21T14:56:24;119.77;;;111.87;;
35376;SDS011;21480;51.642;4.834;2022-09-21T14:59:12;118.97;;;110.80;;
35376;SDS011;21480;51.642;4.834;2022-09-21T15:01:56;117.37;;;109.23;;
35376;SDS011;21480;51.642;4.834;2022-09-21T15:07:36;119.07;;;110.83;;
35376;SDS011;21480;51.642;4.834;2022-09-21T15:10:53;117.67;;;109.67;;
35376;SDS011;21480;51.642;4.834;2022-09-21T15:18:50;117.83;;;109.63;;
35376;SDS011;21480;51.642;4.834;2022-09-21T15:21:38;117.20;;;109.17;;
35376;SDS011;21480;51.642;4.834;2022-09-21T15:24:24;120.07;;;111.97;;
35376;SDS011;21480;51.642;4.834;2022-09-21T15:27:06;118.03;;;109.73;;
35376;SDS011;21480;51.642;4.834;2022-09-21T15:29:37;118.30;;;110.40;;
35376;SDS011;21480;51.642;4.834;2022-09-21T15:32:04;118.27;;;110.17;;
35376;SDS011;21480;51.642;4.834;2022-09-21T15:34:30;117.73;;;109.83;;
35376;SDS011;21480;51.642;4.834;2022-09-21T15:37:06;116.97;;;109.13;;
35376;SDS011;21480;51.642;4.834;2022-09-21T15:39:41;117.17;;;109.10;;
35376;SDS011;21480;51.642;4.834;2022-09-21T15:44:32;119.53;;;111.37;;
35376;SDS011;21480;51.642;4.834;2022-09-21T15:46:58;119.10;;;110.50;;
35376;SDS011;21480;51.642;4.834;2022-09-21T15:49:27;120.30;;;111.70;;
35376;SDS011;21480;51.642;4.834;2022-09-21T15:52:02;121.53;;;112.90;;
35376;SDS011;21480;51.642;4.834;2022-09-21T15:54:41;121.80;;;113.00;;
35376;SDS011;21480;51.642;4.834;2022-09-21T16:05:51;123.27;;;114.33;;
35376;SDS011;21480;51.642;4.834;2022-09-21T16:08:34;124.07;;;114.67;;
35376;SDS011;21480;51.642;4.834;2022-09-21T16:11:31;121.67;;;112.57;;
35376;SDS011;21480;51.642;4.834;2022-09-21T16:14:11;121.90;;;112.70;;
35376;SDS011;21480;51.642;4.834;2022-09-21T16:17:51;121.20;;;112.17;;
35376;SDS011;21480;51.642;4.834;2022-09-21T16:22:22;122.67;;;113.57;;
35376;SDS011;21480;51.642;4.834;2022-09-21T16:24:55;123.17;;;113.97;;
35376;SDS011;21480;51.642;4.834;2022-09-21T16:27:24;123.80;;;114.63;;
35376;SDS011;21480;51.642;4.834;2022-09-21T16:29:55;123.37;;;113.80;;
35376;SDS011;21480;51.642;4.834;2022-09-21T16:32:32;123.83;;;114.63;;
35376;SDS011;21480;51.642;4.834;2022-09-21T16:37:52;122.70;;;113.60;;
35376;SDS011;21480;51.642;4.834;2022-09-21T16:40:21;123.53;;;114.33;;
35376;SDS011;21480;51.642;4.834;2022-09-21T16:42:48;123.67;;;113.60;;
35376;SDS011;21480;51.642;4.834;2022-09-21T16:45:24;122.83;;;113.60;;
35376;SDS011;21480;51.642;4.834;2022-09-21T16:47:53;120.77;;;111.57;;
35376;SDS011;21480;51.642;4.834;2022-09-21T16:50:20;122.50;;;113.23;;
35376;SDS011;21480;51.642;4.834;2022-09-21T16:52:46;123.30;;;113.63;;
35376;SDS011;21480;51.642;4.834;2022-09-21T16:55:19;123.67;;;113.97;;
35376;SDS011;21480;51.642;4.834;2022-09-21T16:57:46;124.37;;;114.43;;
35376;SDS011;21480;51.642;4.834;2022-09-21T17:00:13;124.33;;;114.60;;
35376;SDS011;21480;51.642;4.834;2022-09-21T17:02:49;120.43;;;111.40;;
35376;SDS011;21480;51.642;4.834;2022-09-21T17:05:15;124.50;;;115.17;;
35376;SDS011;21480;51.642;4.834;2022-09-21T17:07:56;122.87;;;113.37;;
35376;SDS011;21480;51.642;4.834;2022-09-21T17:10:24;122.23;;;113.00;;
35376;SDS011;21480;51.642;4.834;2022-09-21T17:12:56;122.20;;;112.93;;
35376;SDS011;21480;51.642;4.834;2022-09-21T17:15:24;122.80;;;113.33;;
35376;SDS011;21480;51.642;4.834;2022-09-21T17:17:52;121.87;;;112.47;;
35376;SDS011;21480;51.642;4.834;2022-09-21T17:20:21;122.93;;;113.47;;
35376;SDS011;21480;51.642;4.834;2022-09-21T17:22:52;121.33;;;112.10;;
35376;SDS011;21480;51.642;4.834;2022-09-21T17:25:18;123.53;;;113.60;;
35376;SDS011;21480;51.642;4.834;2022-09-21T17:27:44;122.03;;;112.43;;
35376;SDS011;21480;51.642;4.834;2022-09-21T17:30:12;124.83;;;114.77;;
35376;SDS011;21480;51.642;4.834;2022-09-21T17:32:39;121.50;;;111.97;;
35376;SDS011;21480;51.642;4.834;2022-09-21T17:35:18;121.40;;;112.10;;
35376;SDS011;21480;51.642;4.834;2022-09-21T17:37:55;122.07;;;112.47;;
35376;SDS011;21480;51.642;4.834;2022-09-21T17:40:21;123.33;;;113.90;;
35376;SDS011;21480;51.642;4.834;2022-09-21T17:42:48;122.77;;;113.40;;
35376;SDS011;21480;51.642;4.834;2022-09-21T17:48:00;122.13;;;112.73;;